sensor_id;sensor_type;location;lat;lon;timestamp;temperature;humidity
7676;DHT22;3880;51.464;-2.566;2022-08-05T00:02:12;17.80;99.90
7676;DHT22;3880;51.464;-2.566;2022-08-05T00:04:39;17.80;99.90
7676;DHT22;3880;51.464;-2.566;2022-08-05T00:07:07;17.80;99.90
7676;DHT22;3880;51.464;-2.566;2022-08-05T00:09:34;17.70;99.90
7676;DHT22;3880;51.464;-2.566;2022-08-05T00:12:01;17.70;99.90
7676;DHT22;3880;51.464;-2.566;2022-08-05T00:14:28;17.60;99.90
7676;DHT22;3880;51.464;-2.566;2022-08-05T00:16:55;17.60;99.90
7676;DHT22;3880;51.464;-2.566;2022-08-05T00:19:24;17.50;99.90
7676;DHT22;3880;51.464;-2.566;2022-08-05T00:21:51;17.60;99.90
7676;DHT22;3880;51.464;-2.566;2022-08-05T00:24:18;17.60;99.90
7676;DHT22;3880;51.464;-2.566;2022-08-05T00:26:45;17.60;99.90
7676;DHT22;3880;51.464;-2.566;2022-08-05T00:29:12;17.60;99.90
7676;DHT22;3880;51.464;-2.566;2022-08-05T00:31:39;17.60;99.90
7676;DHT22;3880;51.464;-2.566;2022-08-05T00:34:07;17.60;99.90
7676;DHT22;3880;51.464;-2.566;2022-08-05T00:36:35;17.60;99.90
7676;DHT22;3880;51.464;-2.566;2022-08-05T00:39:03;17.70;99.90
7676;DHT22;3880;51.464;-2.566;2022-08-05T00:41:32;17.60;99.90
7676;DHT22;3880;51.464;-2.566;2022-08-05T00:43:59;17.60;99.90
7676;DHT22;3880;51.464;-2.566;2022-08-05T00:46:27;17.60;99.90
7676;DHT22;3880;51.464;-2.566;2022-08-05T00:48:54;17.70;99.90
7676;DHT22;3880;51.464;-2.566;2022-08-05T00:51:22;17.60;99.90
7676;DHT22;3880;51.464;-2.566;2022-08-05T00:53:51;17.60;99.90
7676;DHT22;3880;51.464;-2.566;2022-08-05T00:56:18;17.50;99.90
7676;DHT22;3880;51.464;-2.566;2022-08-05T00:58:45;17.60;99.90
7676;DHT22;3880;51.464;-2.566;2022-08-05T01:01:12;17.60;99.90
7676;DHT22;3880;51.464;-2.566;2022-08-05T01:03:41;17.50;99.90
7676;DHT22;3880;51.464;-2.566;2022-08-05T01:06:09;17.50;99.90
7676;DHT22;3880;51.464;-2.566;2022-08-05T01:08:37;17.60;99.90
7676;DHT22;3880;51.464;-2.566;2022-08-05T01:11:10;17.60;99.90
7676;DHT22;3880;51.464;-2.566;2022-08-05T01:13:44;17.60;99.90
7676;DHT22;3880;51.464;-2.566;2022-08-05T01:16:20;17.40;99.90
7676;DHT22;3880;51.464;-2.566;2022-08-05T01:18:51;17.30;99.90
7676;DHT22;3880;51.464;-2.566;2022-08-05T01:21:31;17.30;99.90
7676;DHT22;3880;51.464;-2.566;2022-08-05T01:24:13;17.20;99.90
7676;DHT22;3880;51.464;-2.566;2022-08-05T01:26:58;17.00;99.90
7676;DHT22;3880;51.464;-2.566;2022-08-05T01:29:31;17.10;99.90
7676;DHT22;3880;51.464;-2.566;2022-08-05T01:32:02;17.00;99.90
7676;DHT22;3880;51.464;-2.566;2022-08-05T01:34:32;16.90;99.90
7676;DHT22;3880;51.464;-2.566;2022-08-05T01:37:03;16.60;99.90
7676;DHT22;3880;51.464;-2.566;2022-08-05T01:39:33;16.40;99.90
7676;DHT22;3880;51.464;-2.566;2022-08-05T01:42:02;16.40;99.90
7676;DHT22;3880;51.464;-2.566;2022-08-05T01:44:33;16.30;99.90
7676;DHT22;3880;51.464;-2.566;2022-08-05T01:47:00;16.30;99.90
7676;DHT22;3880;51.464;-2.566;2022-08-05T01:49:29;16.40;99.90
7676;DHT22;3880;51.464;-2.566;2022-08-05T01:52:01;16.30;99.90
7676;DHT22;3880;51.464;-2.566;2022-08-05T01:54:38;16.40;99.90
7676;DHT22;3880;51.464;-2.566;2022-08-05T01:57:06;16.30;99.90
7676;DHT22;3880;51.464;-2.566;2022-08-05T01:59:38;16.40;99.90
7676;DHT22;3880;51.464;-2.566;2022-08-05T02:02:07;16.40;99.90
7676;DHT22;3880;51.464;-2.566;2022-08-05T02:04:36;16.40;99.90
7676;DHT22;3880;51.464;-2.566;2022-08-05T02:07:03;16.40;99.90
7676;DHT22;3880;51.464;-2.566;2022-08-05T02:09:30;16.40;99.90
7676;DHT22;3880;51.464;-2.566;2022-08-05T02:12:02;16.20;99.90
7676;DHT22;3880;51.464;-2.566;2022-08-05T02:14:33;16.20;99.90
7676;DHT22;3880;51.464;-2.566;2022-08-05T02:17:07;16.10;99.90
7676;DHT22;3880;51.464;-2.566;2022-08-05T02:19:42;16.20;99.90
7676;DHT22;3880;51.464;-2.566;2022-08-05T02:22:15;16.00;99.90
7676;DHT22;3880;51.464;-2.566;2022-08-05T02:24:46;15.90;99.90
7676;DHT22;3880;51.464;-2.566;2022-08-05T02:27:16;16.10;99.90
7676;DHT22;3880;51.464;-2.566;2022-08-05T02:29:45;16.20;99.90
7676;DHT22;3880;51.464;-2.566;2022-08-05T02:32:17;16.20;99.90
7676;DHT22;3880;51.464;-2.566;2022-08-05T02:34:46;16.10;99.90
7676;DHT22;3880;51.464;-2.566;2022-08-05T02:37:14;16.10;99.90
7676;DHT22;3880;51.464;-2.566;2022-08-05T02:39:42;16.10;99.90
7676;DHT22;3880;51.464;-2.566;2022-08-05T02:42:12;15.90;99.90
7676;DHT22;3880;51.464;-2.566;2022-08-05T02:44:41;15.90;99.90
7676;DHT22;3880;51.464;-2.566;2022-08-05T02:47:09;15.80;99.90
7676;DHT22;3880;51.464;-2.566;2022-08-05T02:49:40;15.60;99.90
7676;DHT22;3880;51.464;-2.566;2022-08-05T02:52:11;15.60;99.90
7676;DHT22;3880;51.464;-2.566;2022-08-05T02:54:40;15.50;99.90
7676;DHT22;3880;51.464;-2.566;2022-08-05T02:57:11;15.50;99.90
7676;DHT22;3880;51.464;-2.566;2022-08-05T02:59:41;15.60;99.90
7676;DHT22;3880;51.464;-2.566;2022-08-05T03:02:09;15.60;99.90
7676;DHT22;3880;51.464;-2.566;2022-08-05T03:04:38;15.50;99.90
7676;DHT22;3880;51.464;-2.566;2022-08-05T03:07:06;15.50;99.90
7676;DHT22;3880;51.464;-2.566;2022-08-05T03:09:34;15.40;99.90
7676;DHT22;3880;51.464;-2.566;2022-08-05T03:12:02;15.60;99.90
7676;DHT22;3880;51.464;-2.566;2022-08-05T03:14:30;15.60;99.90
7676;DHT22;3880;51.464;-2.566;2022-08-05T03:16:57;15.70;99.90
7676;DHT22;3880;51.464;-2.566;2022-08-05T03:19:24;15.60;99.90
7676;DHT22;3880;51.464;-2.566;2022-08-05T03:21:52;15.50;99.90
7676;DHT22;3880;51.464;-2.566;2022-08-05T03:24:20;15.60;99.90
7676;DHT22;3880;51.464;-2.566;2022-08-05T03:26:47;15.60;99.90
7676;DHT22;3880;51.464;-2.566;2022-08-05T03:29:14;15.50;99.90
7676;DHT22;3880;51.464;-2.566;2022-08-05T03:31:42;15.60;99.90
7676;DHT22;3880;51.464;-2.566;2022-08-05T03:34:09;15.60;99.90
7676;DHT22;3880;51.464;-2.566;2022-08-05T03:36:36;15.50;99.90
7676;DHT22;3880;51.464;-2.566;2022-08-05T03:39:08;15.40;99.90
7676;DHT22;3880;51.464;-2.566;2022-08-05T03:41:35;15.30;99.90
7676;DHT22;3880;51.464;-2.566;2022-08-05T03:44:02;15.40;99.90
7676;DHT22;3880;51.464;-2.566;2022-08-05T03:46:29;15.40;99.90
7676;DHT22;3880;51.464;-2.566;2022-08-05T03:48:57;15.40;99.90
7676;DHT22;3880;51.464;-2.566;2022-08-05T03:51:28;15.40;99.90
7676;DHT22;3880;51.464;-2.566;2022-08-05T03:53:59;15.30;99.90
7676;DHT22;3880;51.464;-2.566;2022-08-05T03:56:35;15.40;99.90
7676;DHT22;3880;51.464;-2.566;2022-08-05T03:59:07;15.40;99.90
7676;DHT22;3880;51.464;-2.566;2022-08-05T04:01:38;15.50;99.90
7676;DHT22;3880;51.464;-2.566;2022-08-05T04:04:06;15.50;99.90
7676;DHT22;3880;51.464;-2.566;2022-08-05T04:06:34;15.50;99.90
7676;DHT22;3880;51.464;-2.566;2022-08-05T04:09:03;15.40;99.90
7676;DHT22;3880;51.464;-2.566;2022-08-05T04:11:32;15.50;99.90
7676;DHT22;3880;51.464;-2.566;2022-08-05T04:13:59;15.30;99.90
7676;DHT22;3880;51.464;-2.566;2022-08-05T04:16:27;15.40;99.90
7676;DHT22;3880;51.464;-2.566;2022-08-05T04:18:54;15.40;99.90
7676;DHT22;3880;51.464;-2.566;2022-08-05T04:21:21;15.40;99.90
7676;DHT22;3880;51.464;-2.566;2022-08-05T04:23:49;15.40;99.90
7676;DHT22;3880;51.464;-2.566;2022-08-05T04:26:16;15.30;99.90
7676;DHT22;3880;51.464;-2.566;2022-08-05T04:28:44;15.30;99.90
7676;DHT22;3880;51.464;-2.566;2022-08-05T04:31:11;15.20;99.90
7676;DHT22;3880;51.464;-2.566;2022-08-05T04:33:38;15.20;99.90
7676;DHT22;3880;51.464;-2.566;2022-08-05T04:36:06;15.30;99.90
7676;DHT22;3880;51.464;-2.566;2022-08-05T04:38:35;15.20;99.90
7676;DHT22;3880;51.464;-2.566;2022-08-05T04:41:02;15.20;99.90
7676;DHT22;3880;51.464;-2.566;2022-08-05T04:43:29;15.20;99.90
7676;DHT22;3880;51.464;-2.566;2022-08-05T04:45:57;15.20;99.90
7676;DHT22;3880;51.464;-2.566;2022-08-05T04:48:24;15.20;99.90
7676;DHT22;3880;51.464;-2.566;2022-08-05T04:50:51;15.20;99.90
7676;DHT22;3880;51.464;-2.566;2022-08-05T04:53:18;15.20;99.90
7676;DHT22;3880;51.464;-2.566;2022-08-05T04:55:45;15.20;99.90
7676;DHT22;3880;51.464;-2.566;2022-08-05T04:58:15;15.20;99.90
7676;DHT22;3880;51.464;-2.566;2022-08-05T05:00:43;15.20;99.90
7676;DHT22;3880;51.464;-2.566;2022-08-05T05:03:11;15.30;99.90
7676;DHT22;3880;51.464;-2.566;2022-08-05T05:05:38;15.30;99.90
7676;DHT22;3880;51.464;-2.566;2022-08-05T05:08:07;15.30;99.90
7676;DHT22;3880;51.464;-2.566;2022-08-05T05:10:38;15.20;99.90
7676;DHT22;3880;51.464;-2.566;2022-08-05T05:13:06;15.20;99.90
7676;DHT22;3880;51.464;-2.566;2022-08-05T05:15:34;15.20;99.90
7676;DHT22;3880;51.464;-2.566;2022-08-05T05:18:01;15.20;99.90
7676;DHT22;3880;51.464;-2.566;2022-08-05T05:20:29;15.10;99.90
7676;DHT22;3880;51.464;-2.566;2022-08-05T05:22:58;15.00;99.90
7676;DHT22;3880;51.464;-2.566;2022-08-05T05:25:26;15.00;99.90
7676;DHT22;3880;51.464;-2.566;2022-08-05T05:27:53;15.10;99.90
7676;DHT22;3880;51.464;-2.566;2022-08-05T05:30:21;15.20;99.90
7676;DHT22;3880;51.464;-2.566;2022-08-05T05:32:48;15.20;99.90
7676;DHT22;3880;51.464;-2.566;2022-08-05T05:35:15;15.30;99.90
7676;DHT22;3880;51.464;-2.566;2022-08-05T05:37:48;15.30;99.90
7676;DHT22;3880;51.464;-2.566;2022-08-05T05:40:16;15.30;99.90
7676;DHT22;3880;51.464;-2.566;2022-08-05T05:42:43;15.40;99.90
7676;DHT22;3880;51.464;-2.566;2022-08-05T05:45:10;15.50;99.90
7676;DHT22;3880;51.464;-2.566;2022-08-05T05:47:37;15.50;99.90
7676;DHT22;3880;51.464;-2.566;2022-08-05T05:50:06;15.30;99.90
7676;DHT22;3880;51.464;-2.566;2022-08-05T05:52:34;15.40;99.90
7676;DHT22;3880;51.464;-2.566;2022-08-05T05:55:04;15.30;99.90
7676;DHT22;3880;51.464;-2.566;2022-08-05T05:57:33;15.30;99.90
7676;DHT22;3880;51.464;-2.566;2022-08-05T06:00:00;15.30;99.90
7676;DHT22;3880;51.464;-2.566;2022-08-05T06:02:27;15.20;99.90
7676;DHT22;3880;51.464;-2.566;2022-08-05T06:04:54;15.10;99.90
7676;DHT22;3880;51.464;-2.566;2022-08-05T06:07:22;15.10;99.90
7676;DHT22;3880;51.464;-2.566;2022-08-05T06:09:49;15.20;99.90
7676;DHT22;3880;51.464;-2.566;2022-08-05T06:12:18;15.40;99.90
7676;DHT22;3880;51.464;-2.566;2022-08-05T06:14:45;15.40;99.90
7676;DHT22;3880;51.464;-2.566;2022-08-05T06:17:12;15.40;99.90
7676;DHT22;3880;51.464;-2.566;2022-08-05T06:19:49;15.50;99.90
7676;DHT22;3880;51.464;-2.566;2022-08-05T06:22:22;15.40;99.90
7676;DHT22;3880;51.464;-2.566;2022-08-05T06:24:51;15.30;99.90
7676;DHT22;3880;51.464;-2.566;2022-08-05T06:27:22;15.20;99.90
7676;DHT22;3880;51.464;-2.566;2022-08-05T06:29:49;15.20;99.90
7676;DHT22;3880;51.464;-2.566;2022-08-05T06:32:16;15.20;99.90
7676;DHT22;3880;51.464;-2.566;2022-08-05T06:34:44;15.30;99.90
7676;DHT22;3880;51.464;-2.566;2022-08-05T06:37:11;15.40;99.90
7676;DHT22;3880;51.464;-2.566;2022-08-05T06:39:38;15.40;99.90
7676;DHT22;3880;51.464;-2.566;2022-08-05T06:42:05;15.50;99.90
7676;DHT22;3880;51.464;-2.566;2022-08-05T06:44:34;15.50;99.90
7676;DHT22;3880;51.464;-2.566;2022-08-05T06:47:01;15.40;99.90
7676;DHT22;3880;51.464;-2.566;2022-08-05T06:49:28;15.40;99.90
7676;DHT22;3880;51.464;-2.566;2022-08-05T06:51:55;15.50;99.90
7676;DHT22;3880;51.464;-2.566;2022-08-05T06:54:22;15.80;99.90
7676;DHT22;3880;51.464;-2.566;2022-08-05T06:56:49;15.90;99.90
7676;DHT22;3880;51.464;-2.566;2022-08-05T06:59:16;15.90;99.90
7676;DHT22;3880;51.464;-2.566;2022-08-05T07:01:45;15.80;99.90
7676;DHT22;3880;51.464;-2.566;2022-08-05T07:04:12;15.80;99.90
7676;DHT22;3880;51.464;-2.566;2022-08-05T07:06:39;15.70;99.90
7676;DHT22;3880;51.464;-2.566;2022-08-05T07:09:06;16.10;99.90
7676;DHT22;3880;51.464;-2.566;2022-08-05T07:11:34;16.20;99.90
7676;DHT22;3880;51.464;-2.566;2022-08-05T07:14:01;16.60;99.90
7676;DHT22;3880;51.464;-2.566;2022-08-05T07:16:50;16.70;99.90
7676;DHT22;3880;51.464;-2.566;2022-08-05T07:19:24;16.90;99.90
7676;DHT22;3880;51.464;-2.566;2022-08-05T07:21:54;16.90;99.90
7676;DHT22;3880;51.464;-2.566;2022-08-05T07:24:22;17.10;99.90
7676;DHT22;3880;51.464;-2.566;2022-08-05T07:26:49;17.20;99.90
7676;DHT22;3880;51.464;-2.566;2022-08-05T07:29:16;17.40;99.90
7676;DHT22;3880;51.464;-2.566;2022-08-05T07:31:44;17.40;99.90
7676;DHT22;3880;51.464;-2.566;2022-08-05T07:34:38;17.50;99.90
7676;DHT22;3880;51.464;-2.566;2022-08-05T07:37:05;17.50;99.90
7676;DHT22;3880;51.464;-2.566;2022-08-05T07:39:32;17.40;99.90
7676;DHT22;3880;51.464;-2.566;2022-08-05T07:42:00;17.50;99.90
7676;DHT22;3880;51.464;-2.566;2022-08-05T07:44:27;17.60;99.90
7676;DHT22;3880;51.464;-2.566;2022-08-05T07:46:54;17.50;99.90
7676;DHT22;3880;51.464;-2.566;2022-08-05T07:49:21;17.60;99.90
7676;DHT22;3880;51.464;-2.566;2022-08-05T07:51:49;17.40;99.90
7676;DHT22;3880;51.464;-2.566;2022-08-05T07:54:16;17.40;99.90
7676;DHT22;3880;51.464;-2.566;2022-08-05T07:56:45;17.70;99.90
7676;DHT22;3880;51.464;-2.566;2022-08-05T07:59:12;17.80;99.90
7676;DHT22;3880;51.464;-2.566;2022-08-05T08:01:39;17.80;99.90
7676;DHT22;3880;51.464;-2.566;2022-08-05T08:04:06;17.80;99.90
7676;DHT22;3880;51.464;-2.566;2022-08-05T08:06:33;17.90;99.90
7676;DHT22;3880;51.464;-2.566;2022-08-05T08:09:02;18.00;99.90
7676;DHT22;3880;51.464;-2.566;2022-08-05T08:11:29;18.10;99.90
7676;DHT22;3880;51.464;-2.566;2022-08-05T08:13:57;18.10;99.90
7676;DHT22;3880;51.464;-2.566;2022-08-05T08:16:24;18.20;99.90
7676;DHT22;3880;51.464;-2.566;2022-08-05T08:18:52;18.30;99.90
7676;DHT22;3880;51.464;-2.566;2022-08-05T08:21:22;18.10;99.90
7676;DHT22;3880;51.464;-2.566;2022-08-05T08:23:50;18.00;99.90
7676;DHT22;3880;51.464;-2.566;2022-08-05T08:26:19;18.10;99.90
7676;DHT22;3880;51.464;-2.566;2022-08-05T08:28:46;18.00;99.90
7676;DHT22;3880;51.464;-2.566;2022-08-05T08:31:13;18.10;99.90
7676;DHT22;3880;51.464;-2.566;2022-08-05T08:33:40;17.90;99.90
7676;DHT22;3880;51.464;-2.566;2022-08-05T08:36:07;18.00;99.90
7676;DHT22;3880;51.464;-2.566;2022-08-05T08:38:34;18.10;99.90
7676;DHT22;3880;51.464;-2.566;2022-08-05T08:41:05;18.30;99.90
7676;DHT22;3880;51.464;-2.566;2022-08-05T08:43:34;18.50;99.90
7676;DHT22;3880;51.464;-2.566;2022-08-05T08:46:02;18.50;99.90
7676;DHT22;3880;51.464;-2.566;2022-08-05T08:48:30;18.40;99.90
7676;DHT22;3880;51.464;-2.566;2022-08-05T08:50:58;18.30;99.90
7676;DHT22;3880;51.464;-2.566;2022-08-05T08:53:27;18.10;99.90
7676;DHT22;3880;51.464;-2.566;2022-08-05T08:55:54;18.10;99.90
7676;DHT22;3880;51.464;-2.566;2022-08-05T08:58:21;18.30;99.90
7676;DHT22;3880;51.464;-2.566;2022-08-05T09:00:49;18.30;99.90
7676;DHT22;3880;51.464;-2.566;2022-08-05T09:03:17;18.10;99.90
7676;DHT22;3880;51.464;-2.566;2022-08-05T09:05:46;18.20;99.90
7676;DHT22;3880;51.464;-2.566;2022-08-05T09:08:13;18.30;99.90
7676;DHT22;3880;51.464;-2.566;2022-08-05T09:10:42;18.60;99.90
7676;DHT22;3880;51.464;-2.566;2022-08-05T09:13:09;19.20;99.90
7676;DHT22;3880;51.464;-2.566;2022-08-05T09:15:37;19.90;99.90
7676;DHT22;3880;51.464;-2.566;2022-08-05T09:18:07;20.60;99.90
7676;DHT22;3880;51.464;-2.566;2022-08-05T09:20:35;21.50;99.90
7676;DHT22;3880;51.464;-2.566;2022-08-05T09:23:08;22.20;99.90
7676;DHT22;3880;51.464;-2.566;2022-08-05T09:25:37;22.50;99.90
7676;DHT22;3880;51.464;-2.566;2022-08-05T09:28:14;22.90;99.90
7676;DHT22;3880;51.464;-2.566;2022-08-05T09:30:51;23.60;99.90
7676;DHT22;3880;51.464;-2.566;2022-08-05T09:33:21;24.00;99.90
7676;DHT22;3880;51.464;-2.566;2022-08-05T09:35:57;23.70;99.90
7676;DHT22;3880;51.464;-2.566;2022-08-05T09:38:24;23.80;99.90
7676;DHT22;3880;51.464;-2.566;2022-08-05T09:40:51;24.30;99.90
7676;DHT22;3880;51.464;-2.566;2022-08-05T09:43:30;24.50;99.50
7676;DHT22;3880;51.464;-2.566;2022-08-05T09:45:57;25.20;99.80
7676;DHT22;3880;51.464;-2.566;2022-08-05T09:48:27;25.70;98.90
7676;DHT22;3880;51.464;-2.566;2022-08-05T09:50:56;26.90;97.40
7676;DHT22;3880;51.464;-2.566;2022-08-05T09:53:24;27.10;96.50
7676;DHT22;3880;51.464;-2.566;2022-08-05T09:55:53;26.50;96.80
7676;DHT22;3880;51.464;-2.566;2022-08-05T09:58:20;26.20;96.70
7676;DHT22;3880;51.464;-2.566;2022-08-05T10:00:55;25.90;96.80
7676;DHT22;3880;51.464;-2.566;2022-08-05T10:03:23;25.30;96.80
7676;DHT22;3880;51.464;-2.566;2022-08-05T10:06:02;24.20;97.20
7676;DHT22;3880;51.464;-2.566;2022-08-05T10:08:30;22.80;98.50
7676;DHT22;3880;51.464;-2.566;2022-08-05T10:10:57;22.80;99.10
7676;DHT22;3880;51.464;-2.566;2022-08-05T10:13:29;23.10;99.10
7676;DHT22;3880;51.464;-2.566;2022-08-05T10:15:57;24.00;98.60
7676;DHT22;3880;51.464;-2.566;2022-08-05T10:18:25;24.70;97.80
7676;DHT22;3880;51.464;-2.566;2022-08-05T10:20:58;24.20;97.30
7676;DHT22;3880;51.464;-2.566;2022-08-05T10:23:28;24.10;97.30
7676;DHT22;3880;51.464;-2.566;2022-08-05T10:25:57;23.40;97.90
7676;DHT22;3880;51.464;-2.566;2022-08-05T10:28:25;24.00;97.50
7676;DHT22;3880;51.464;-2.566;2022-08-05T10:30:53;25.10;97.10
7676;DHT22;3880;51.464;-2.566;2022-08-05T10:33:21;26.10;95.70
7676;DHT22;3880;51.464;-2.566;2022-08-05T10:35:50;25.30;97.20
7676;DHT22;3880;51.464;-2.566;2022-08-05T10:38:18;25.40;97.50
7676;DHT22;3880;51.464;-2.566;2022-08-05T10:41:00;24.50;98.00
7676;DHT22;3880;51.464;-2.566;2022-08-05T10:43:37;24.20;98.70
7676;DHT22;3880;51.464;-2.566;2022-08-05T10:46:09;24.30;96.90
7676;DHT22;3880;51.464;-2.566;2022-08-05T10:48:37;24.30;96.80
7676;DHT22;3880;51.464;-2.566;2022-08-05T10:51:08;24.80;96.60
7676;DHT22;3880;51.464;-2.566;2022-08-05T10:53:40;24.30;96.70
7676;DHT22;3880;51.464;-2.566;2022-08-05T10:56:11;23.10;98.10
7676;DHT22;3880;51.464;-2.566;2022-08-05T10:58:59;23.20;98.60
7676;DHT22;3880;51.464;-2.566;2022-08-05T11:01:29;22.70;99.00
7676;DHT22;3880;51.464;-2.566;2022-08-05T11:04:07;23.70;98.80
7676;DHT22;3880;51.464;-2.566;2022-08-05T11:09:26;24.90;97.30
7676;DHT22;3880;51.464;-2.566;2022-08-05T11:11:55;26.70;96.30
7676;DHT22;3880;51.464;-2.566;2022-08-05T11:14:26;26.30;95.80
7676;DHT22;3880;51.464;-2.566;2022-08-05T11:17:27;26.40;94.80
7676;DHT22;3880;51.464;-2.566;2022-08-05T11:19:57;26.20;94.90
7676;DHT22;3880;51.464;-2.566;2022-08-05T11:22:38;26.30;95.80
7676;DHT22;3880;51.464;-2.566;2022-08-05T11:25:31;26.60;95.60
7676;DHT22;3880;51.464;-2.566;2022-08-05T11:31:23;27.30;93.90
7676;DHT22;3880;51.464;-2.566;2022-08-05T11:33:54;29.20;93.20
7676;DHT22;3880;51.464;-2.566;2022-08-05T11:39:47;29.30;90.80
7676;DHT22;3880;51.464;-2.566;2022-08-05T11:42:15;30.60;91.30
7676;DHT22;3880;51.464;-2.566;2022-08-05T11:44:44;30.20;89.70
7676;DHT22;3880;51.464;-2.566;2022-08-05T11:47:13;28.30;90.80
7676;DHT22;3880;51.464;-2.566;2022-08-05T11:49:40;25.90;92.50
7676;DHT22;3880;51.464;-2.566;2022-08-05T11:52:08;24.90;93.80
7676;DHT22;3880;51.464;-2.566;2022-08-05T11:54:36;26.10;93.60
7676;DHT22;3880;51.464;-2.566;2022-08-05T11:57:04;27.80;92.70
7676;DHT22;3880;51.464;-2.566;2022-08-05T11:59:32;29.60;91.70
7676;DHT22;3880;51.464;-2.566;2022-08-05T12:02:02;30.20;90.80
7676;DHT22;3880;51.464;-2.566;2022-08-05T12:04:39;31.00;90.10
7676;DHT22;3880;51.464;-2.566;2022-08-05T12:07:07;31.40;88.20
7676;DHT22;3880;51.464;-2.566;2022-08-05T12:09:39;33.20;87.10
7676;DHT22;3880;51.464;-2.566;2022-08-05T12:12:07;33.00;83.40
7676;DHT22;3880;51.464;-2.566;2022-08-05T12:14:35;31.00;83.50
7676;DHT22;3880;51.464;-2.566;2022-08-05T12:17:06;30.90;84.50
7676;DHT22;3880;51.464;-2.566;2022-08-05T12:19:42;31.70;82.70
7676;DHT22;3880;51.464;-2.566;2022-08-05T12:22:10;31.90;82.80
7676;DHT22;3880;51.464;-2.566;2022-08-05T12:24:42;30.90;81.30
7676;DHT22;3880;51.464;-2.566;2022-08-05T12:27:09;30.70;83.60
7676;DHT22;3880;51.464;-2.566;2022-08-05T12:29:37;30.40;82.90
7676;DHT22;3880;51.464;-2.566;2022-08-05T12:32:04;30.60;84.30
7676;DHT22;3880;51.464;-2.566;2022-08-05T12:34:34;31.10;84.10
7676;DHT22;3880;51.464;-2.566;2022-08-05T12:37:06;31.30;82.10
7676;DHT22;3880;51.464;-2.566;2022-08-05T12:39:36;33.20;81.50
7676;DHT22;3880;51.464;-2.566;2022-08-05T12:42:11;32.80;78.80
7676;DHT22;3880;51.464;-2.566;2022-08-05T12:44:38;31.90;78.00
7676;DHT22;3880;51.464;-2.566;2022-08-05T12:47:06;28.80;81.30
7676;DHT22;3880;51.464;-2.566;2022-08-05T12:49:43;27.50;84.00
7676;DHT22;3880;51.464;-2.566;2022-08-05T12:52:13;27.50;85.00
7676;DHT22;3880;51.464;-2.566;2022-08-05T12:54:41;27.90;85.40
7676;DHT22;3880;51.464;-2.566;2022-08-05T12:57:09;27.50;86.10
7676;DHT22;3880;51.464;-2.566;2022-08-05T12:59:45;27.20;87.70
7676;DHT22;3880;51.464;-2.566;2022-08-05T13:02:16;28.00;85.20
7676;DHT22;3880;51.464;-2.566;2022-08-05T13:04:44;28.10;85.90
7676;DHT22;3880;51.464;-2.566;2022-08-05T13:07:15;27.70;85.80
7676;DHT22;3880;51.464;-2.566;2022-08-05T13:09:47;27.80;85.20
7676;DHT22;3880;51.464;-2.566;2022-08-05T13:12:16;27.60;85.10
7676;DHT22;3880;51.464;-2.566;2022-08-05T13:14:45;27.70;84.10
7676;DHT22;3880;51.464;-2.566;2022-08-05T13:17:17;28.10;83.10
7676;DHT22;3880;51.464;-2.566;2022-08-05T13:20:01;28.30;82.80
7676;DHT22;3880;51.464;-2.566;2022-08-05T13:22:31;30.00;82.50
7676;DHT22;3880;51.464;-2.566;2022-08-05T13:24:59;30.80;80.40
7676;DHT22;3880;51.464;-2.566;2022-08-05T13:27:28;30.50;79.90
7676;DHT22;3880;51.464;-2.566;2022-08-05T13:29:56;30.70;79.80
7676;DHT22;3880;51.464;-2.566;2022-08-05T13:32:24;30.60;79.10
7676;DHT22;3880;51.464;-2.566;2022-08-05T13:34:51;32.10;78.80
7676;DHT22;3880;51.464;-2.566;2022-08-05T13:37:18;31.80;77.40
7676;DHT22;3880;51.464;-2.566;2022-08-05T13:39:47;31.60;78.50
7676;DHT22;3880;51.464;-2.566;2022-08-05T13:42:14;30.30;78.10
7676;DHT22;3880;51.464;-2.566;2022-08-05T13:44:42;29.20;80.50
7676;DHT22;3880;51.464;-2.566;2022-08-05T13:47:09;28.60;80.70
7676;DHT22;3880;51.464;-2.566;2022-08-05T13:49:36;28.00;80.20
7676;DHT22;3880;51.464;-2.566;2022-08-05T13:52:10;27.40;81.80
7676;DHT22;3880;51.464;-2.566;2022-08-05T13:54:37;26.90;83.20
7676;DHT22;3880;51.464;-2.566;2022-08-05T13:57:07;28.20;84.20
7676;DHT22;3880;51.464;-2.566;2022-08-05T13:59:34;28.60;80.60
7676;DHT22;3880;51.464;-2.566;2022-08-05T14:02:02;29.50;81.50
7676;DHT22;3880;51.464;-2.566;2022-08-05T14:04:31;30.70;78.50
7676;DHT22;3880;51.464;-2.566;2022-08-05T14:07:19;31.00;79.10
7676;DHT22;3880;51.464;-2.566;2022-08-05T14:09:46;31.40;75.20
7676;DHT22;3880;51.464;-2.566;2022-08-05T14:12:14;31.10;74.60
7676;DHT22;3880;51.464;-2.566;2022-08-05T14:14:41;31.10;76.00
7676;DHT22;3880;51.464;-2.566;2022-08-05T14:17:08;30.80;74.80
7676;DHT22;3880;51.464;-2.566;2022-08-05T14:19:35;30.80;77.20
7676;DHT22;3880;51.464;-2.566;2022-08-05T14:22:02;31.50;75.50
7676;DHT22;3880;51.464;-2.566;2022-08-05T14:24:29;31.40;74.80
7676;DHT22;3880;51.464;-2.566;2022-08-05T14:26:56;30.90;75.90
7676;DHT22;3880;51.464;-2.566;2022-08-05T14:29:25;31.10;75.50
7676;DHT22;3880;51.464;-2.566;2022-08-05T14:31:52;31.70;76.30
7676;DHT22;3880;51.464;-2.566;2022-08-05T14:34:19;30.80;74.80
7676;DHT22;3880;51.464;-2.566;2022-08-05T14:36:46;29.80;76.90
7676;DHT22;3880;51.464;-2.566;2022-08-05T14:39:13;29.60;75.40
7676;DHT22;3880;51.464;-2.566;2022-08-05T14:41:40;29.30;76.80
7676;DHT22;3880;51.464;-2.566;2022-08-05T14:44:07;29.80;76.10
7676;DHT22;3880;51.464;-2.566;2022-08-05T14:46:35;30.00;76.60
7676;DHT22;3880;51.464;-2.566;2022-08-05T14:49:04;29.70;75.00
7676;DHT22;3880;51.464;-2.566;2022-08-05T14:51:31;29.00;74.40
7676;DHT22;3880;51.464;-2.566;2022-08-05T14:53:58;30.00;76.10
7676;DHT22;3880;51.464;-2.566;2022-08-05T14:56:25;30.70;74.10
7676;DHT22;3880;51.464;-2.566;2022-08-05T14:58:52;31.30;74.80
7676;DHT22;3880;51.464;-2.566;2022-08-05T15:01:19;31.10;73.30
7676;DHT22;3880;51.464;-2.566;2022-08-05T15:03:48;31.80;73.60
7676;DHT22;3880;51.464;-2.566;2022-08-05T15:06:15;31.60;72.60
7676;DHT22;3880;51.464;-2.566;2022-08-05T15:08:42;31.20;72.90
7676;DHT22;3880;51.464;-2.566;2022-08-05T15:11:09;30.80;72.50
7676;DHT22;3880;51.464;-2.566;2022-08-05T15:13:37;31.50;72.20
7676;DHT22;3880;51.464;-2.566;2022-08-05T15:16:04;31.40;72.00
7676;DHT22;3880;51.464;-2.566;2022-08-05T15:18:31;31.30;72.20
7676;DHT22;3880;51.464;-2.566;2022-08-05T15:21:01;30.60;72.10
7676;DHT22;3880;51.464;-2.566;2022-08-05T15:23:28;30.30;73.20
7676;DHT22;3880;51.464;-2.566;2022-08-05T15:25:56;28.80;73.00
7676;DHT22;3880;51.464;-2.566;2022-08-05T15:28:23;27.90;75.30
7676;DHT22;3880;51.464;-2.566;2022-08-05T15:30:50;27.70;74.50
7676;DHT22;3880;51.464;-2.566;2022-08-05T15:33:17;27.80;76.30
7676;DHT22;3880;51.464;-2.566;2022-08-05T15:35:44;28.60;76.10
7676;DHT22;3880;51.464;-2.566;2022-08-05T15:38:12;28.20;77.20
7676;DHT22;3880;51.464;-2.566;2022-08-05T15:40:39;28.30;77.70
7676;DHT22;3880;51.464;-2.566;2022-08-05T15:43:06;28.50;77.60
7676;DHT22;3880;51.464;-2.566;2022-08-05T15:45:33;28.20;76.40
7676;DHT22;3880;51.464;-2.566;2022-08-05T15:48:01;28.60;76.40
7676;DHT22;3880;51.464;-2.566;2022-08-05T15:50:29;29.10;76.60
7676;DHT22;3880;51.464;-2.566;2022-08-05T15:52:56;29.70;75.70
7676;DHT22;3880;51.464;-2.566;2022-08-05T15:55:24;28.90;75.60
7676;DHT22;3880;51.464;-2.566;2022-08-05T15:57:51;28.80;75.90
7676;DHT22;3880;51.464;-2.566;2022-08-05T16:00:19;28.30;77.00
7676;DHT22;3880;51.464;-2.566;2022-08-05T16:02:46;28.40;76.40
7676;DHT22;3880;51.464;-2.566;2022-08-05T16:05:13;28.50;76.90
7676;DHT22;3880;51.464;-2.566;2022-08-05T16:07:40;28.90;76.80